KMDT

Harrisburg International Airport

Harrisburg, Pennsylvania, USA
METAR KMDT 221956Z 22011G18KT 10SM SCT080 BKN220 13/00 A3013 RMK AO2 SLP205 T01280000
Observed Flight Rules
Oct-22 @ 19:56 UTC (51 minutes ago) Visual Flight Rules
Wind Visibility Clouds
220° at 11 knots
 Gusting to 18 knots
10 miles
  • Scattered at 8,000' AGL
  • Broken at 22,000' AGL
Temperatures Readings
Current 13°C / 55°F
Dewpoint 0°C / 32°F
Humidity 41%
Altimeter 30.13" Hg
Pressure 1020.5 hPa
Elevation 95
METAR KMDT 221956Z 22011G18KT 10SM SCT080 BKN220 13/00 A3013 RMK AO2 SLP205 T01280000
Observed Flight Rules
Oct-22 @ 19:56 UTC
(51 minutes ago)
VFR
Wind Visibility
220° at 11 knots
 Gusting to 18 knots
10 miles
Clouds
  • Scattered at 8,000' AGL
  • Broken at 22,000' AGL
Temperature Dewpoint
13°C / 55°F 0°C / 32°F
Humidity Altimeter Pressure
41% 30.13" Hg 1020.5 hPa